createdAt,value
2022-11-09T00:00:54.876Z,6.78
2022-11-09T00:03:22.121Z,8.00
2022-11-09T00:06:00.301Z,9.07
2022-11-09T00:08:27.654Z,7.32
2022-11-09T00:10:54.561Z,8.75
2022-11-09T00:13:22.195Z,7.82
2022-11-09T00:15:49.475Z,7.40
2022-11-09T00:18:16.398Z,8.18
2022-11-09T00:20:47.644Z,7.70
2022-11-09T00:23:16.486Z,6.47
2022-11-09T00:25:43.714Z,7.93
2022-11-09T00:28:10.642Z,8.55
2022-11-09T00:30:37.583Z,8.15
2022-11-09T00:33:04.450Z,8.85
2022-11-09T00:35:31.570Z,7.95
2022-11-09T00:37:58.684Z,8.50
2022-11-09T00:40:25.615Z,9.05
2022-11-09T00:42:52.451Z,6.60
2022-11-09T00:45:19.348Z,9.25
2022-11-09T00:47:46.244Z,8.32
2022-11-09T00:50:13.079Z,7.35
2022-11-09T00:52:39.935Z,7.38
2022-11-09T00:55:07.024Z,4.85
2022-11-09T00:57:33.879Z,10.15
2022-11-09T01:00:00.672Z,6.68
2022-11-09T01:02:27.556Z,5.43
2022-11-09T01:04:54.414Z,7.97
2022-11-09T01:07:21.364Z,8.18
2022-11-09T01:09:48.243Z,6.68
2022-11-09T01:12:15.100Z,5.72
2022-11-09T01:14:41.884Z,6.68
2022-11-09T01:17:08.769Z,6.47
2022-11-09T01:19:35.712Z,6.22
2022-11-09T01:22:02.516Z,5.43
2022-11-09T01:24:29.469Z,5.97
2022-11-09T01:26:56.339Z,6.07
2022-11-09T01:29:23.187Z,6.13
2022-11-09T01:31:50.161Z,5.60
2022-11-09T01:34:17.654Z,6.93
2022-11-09T01:36:44.766Z,5.68
2022-11-09T01:39:11.924Z,5.43
2022-11-09T01:41:38.857Z,8.75
2022-11-09T01:44:15.877Z,7.65
2022-11-09T01:46:51.949Z,6.03
2022-11-09T01:49:31.846Z,5.55
2022-11-09T01:52:06.909Z,6.88
2022-11-09T01:54:43.876Z,6.47
2022-11-09T01:57:15.990Z,6.43
2022-11-09T01:59:47.353Z,6.00
2022-11-09T02:02:14.859Z,6.37
2022-11-09T02:04:47.377Z,4.63
2022-11-09T02:07:14.844Z,5.93
2022-11-09T02:10:03.096Z,6.72
2022-11-09T02:12:33.690Z,7.30
2022-11-09T02:15:03.865Z,7.20
2022-11-09T02:17:31.183Z,6.25
2022-11-09T02:19:58.985Z,8.40
2022-11-09T02:22:26.706Z,6.20
2022-11-09T02:24:56.333Z,7.13
2022-11-09T02:27:24.301Z,5.85
2022-11-09T02:29:52.006Z,9.07
2022-11-09T02:32:25.979Z,6.22
2022-11-09T02:34:52.869Z,11.75
2022-11-09T02:37:33.763Z,6.40
2022-11-09T02:40:02.765Z,5.88
2022-11-09T02:42:29.615Z,4.72
2022-11-09T02:44:59.571Z,5.82
2022-11-09T02:47:27.113Z,4.93
2022-11-09T02:49:54.084Z,5.47
2022-11-09T02:52:21.064Z,7.05
2022-11-09T02:54:48.132Z,6.03
2022-11-09T02:57:15.219Z,4.88
2022-11-09T02:59:42.072Z,6.22
2022-11-09T03:02:08.985Z,6.72
2022-11-09T03:04:35.846Z,5.18
2022-11-09T03:07:02.767Z,4.90
2022-11-09T03:09:29.599Z,5.03
2022-11-09T03:11:56.428Z,4.97
2022-11-09T03:14:23.220Z,4.60
2022-11-09T03:16:50.914Z,3.95
2022-11-09T03:19:18.019Z,4.97
2022-11-09T03:21:44.890Z,5.70
2022-11-09T03:24:11.808Z,3.42
2022-11-09T03:26:38.712Z,4.45
2022-11-09T03:29:05.509Z,6.70
2022-11-09T03:31:32.339Z,6.00
2022-11-09T03:33:59.202Z,4.75
2022-11-09T03:36:26.087Z,4.68
2022-11-09T03:38:52.914Z,6.47
2022-11-09T03:41:19.930Z,6.13
2022-11-09T03:43:46.726Z,7.05
2022-11-09T03:46:13.609Z,5.47
2022-11-09T03:48:40.435Z,5.20
2022-11-09T03:51:07.273Z,5.45
2022-11-09T03:53:34.211Z,4.43
2022-11-09T03:56:01.161Z,4.43
2022-11-09T03:58:27.940Z,4.32
2022-11-09T04:00:54.873Z,5.22
2022-11-09T04:03:21.851Z,5.43
2022-11-09T04:05:48.894Z,6.68
2022-11-09T04:08:15.809Z,6.47
2022-11-09T04:10:42.670Z,5.28
2022-11-09T04:13:09.804Z,6.88
2022-11-09T04:15:36.858Z,7.10
2022-11-09T04:18:04.226Z,6.57
2022-11-09T04:20:31.771Z,5.82
2022-11-09T04:23:01.272Z,6.30
2022-11-09T04:25:32.598Z,4.13
2022-11-09T04:28:01.010Z,2.88
2022-11-09T04:30:30.991Z,3.22
2022-11-09T04:32:59.087Z,3.35
2022-11-09T04:35:27.433Z,4.50
2022-11-09T04:38:06.030Z,4.22
2022-11-09T04:40:34.620Z,2.97
2022-11-09T04:43:06.321Z,3.33
2022-11-09T04:45:34.404Z,2.97
2022-11-09T04:48:02.885Z,5.45
2022-11-09T04:50:30.371Z,3.78
2022-11-09T04:53:08.580Z,3.83
2022-11-09T04:55:36.080Z,4.88
2022-11-09T04:58:03.130Z,6.13
2022-11-09T05:00:30.342Z,6.32
2022-11-09T05:03:03.576Z,4.15
2022-11-09T05:05:32.370Z,5.10
2022-11-09T05:07:59.202Z,4.50
2022-11-09T05:10:26.187Z,6.93
2022-11-09T05:13:01.792Z,4.65
2022-11-09T05:15:29.189Z,5.35
2022-11-09T05:17:56.312Z,5.57
2022-11-09T05:20:23.693Z,3.70
2022-11-09T05:23:09.108Z,5.65
2022-11-09T05:25:36.356Z,3.88
2022-11-09T05:28:03.166Z,4.53
2022-11-09T05:30:30.020Z,3.72
2022-11-09T05:32:56.861Z,4.57
2022-11-09T05:35:23.739Z,5.90
2022-11-09T05:37:50.619Z,6.13
2022-11-09T05:40:19.221Z,4.20
2022-11-09T05:42:46.584Z,3.97
2022-11-09T05:45:40.822Z,5.28
2022-11-09T05:48:04.075Z,5.07
2022-11-09T05:50:30.950Z,4.22
2022-11-09T05:53:02.080Z,4.15
2022-11-09T05:55:29.068Z,3.40
2022-11-09T05:57:56.052Z,3.80
2022-11-09T06:00:23.276Z,5.28
2022-11-09T06:02:50.285Z,5.55
2022-11-09T06:05:17.628Z,3.63
2022-11-09T06:07:44.498Z,3.25
2022-11-09T06:10:11.861Z,5.00
2022-11-09T06:12:38.626Z,3.78
2022-11-09T06:15:06.089Z,5.80
2022-11-09T06:17:33.084Z,5.63
2022-11-09T06:19:59.957Z,5.80
2022-11-09T06:22:26.863Z,4.95
2022-11-09T06:24:53.651Z,5.70
2022-11-09T06:27:20.478Z,5.18
2022-11-09T06:29:47.307Z,4.05
2022-11-09T06:32:14.172Z,7.20
2022-11-09T06:34:42.693Z,4.25
2022-11-09T06:37:09.609Z,3.80
2022-11-09T06:39:36.504Z,5.03
2022-11-09T06:42:03.414Z,5.30
2022-11-09T06:44:30.228Z,5.15
2022-11-09T06:46:57.134Z,4.57
2022-11-09T06:49:24.018Z,4.13
2022-11-09T06:51:50.966Z,5.47
2022-11-09T06:54:17.781Z,4.80
2022-11-09T06:56:44.656Z,7.55
2022-11-09T06:59:11.473Z,6.25
2022-11-09T07:01:38.455Z,6.18
2022-11-09T07:04:05.471Z,7.50
2022-11-09T07:06:32.381Z,8.77
2022-11-09T07:08:59.644Z,7.07
2022-11-09T07:11:26.550Z,7.22
2022-11-09T07:13:57.245Z,9.38
2022-11-09T07:16:24.589Z,7.43
2022-11-09T07:18:51.455Z,8.30
2022-11-09T07:21:18.686Z,6.45
2022-11-09T07:23:47.937Z,13.95
2022-11-09T07:26:15.988Z,6.97
2022-11-09T07:28:43.060Z,8.27
2022-11-09T07:31:10.284Z,13.27
2022-11-09T07:33:37.704Z,21.83
2022-11-09T07:36:05.686Z,24.73
2022-11-09T07:38:32.554Z,10.23
2022-11-09T07:41:00.612Z,6.57
2022-11-09T07:43:28.317Z,6.20
2022-11-09T07:45:55.308Z,5.32
2022-11-09T07:48:22.309Z,5.22
2022-11-09T07:50:49.197Z,6.70
2022-11-09T07:53:16.937Z,10.38
2022-11-09T07:55:44.614Z,7.55
2022-11-09T07:58:14.047Z,6.53
2022-11-09T08:00:42.408Z,9.10
2022-11-09T08:03:09.555Z,10.32
2022-11-09T08:05:37.530Z,6.63
2022-11-09T08:08:07.081Z,4.68
2022-11-09T08:10:35.692Z,4.28
2022-11-09T08:13:05.353Z,7.18
2022-11-09T08:15:33.643Z,9.13
2022-11-09T08:18:06.624Z,5.63
2022-11-09T08:20:34.350Z,6.63
2022-11-09T08:23:04.644Z,5.22
2022-11-09T08:25:36.189Z,7.78
2022-11-09T08:28:03.788Z,7.67
2022-11-09T08:30:31.148Z,5.05
2022-11-09T08:33:00.046Z,4.57
2022-11-09T08:35:27.526Z,4.32
2022-11-09T08:37:55.076Z,7.88
2022-11-09T08:40:26.253Z,6.00
2022-11-09T08:42:53.487Z,6.63
2022-11-09T08:45:20.962Z,10.25
2022-11-09T08:47:48.121Z,5.78
2022-11-09T08:50:15.674Z,4.13
2022-11-09T08:52:42.493Z,7.28
2022-11-09T08:55:09.824Z,8.98
2022-11-09T09:00:05.814Z,7.97
2022-11-09T09:02:32.640Z,5.28
2022-11-09T09:04:59.527Z,4.63
2022-11-09T09:07:26.644Z,4.07
2022-11-09T09:09:53.505Z,5.30
2022-11-09T09:12:20.768Z,4.90
2022-11-09T09:14:47.816Z,5.93
2022-11-09T09:17:14.823Z,3.13
2022-11-09T09:19:44.806Z,2.53
2022-11-09T09:22:14.217Z,4.20
2022-11-09T09:24:41.006Z,4.25
2022-11-09T09:27:08.041Z,4.88
2022-11-09T09:29:34.914Z,5.85
2022-11-09T09:32:01.895Z,4.97
2022-11-09T09:34:28.670Z,4.53
2022-11-09T09:36:55.894Z,7.22
2022-11-09T09:39:22.701Z,5.13
2022-11-09T09:41:58.306Z,5.55
2022-11-09T09:44:43.652Z,3.90
2022-11-09T09:47:13.607Z,5.00
2022-11-09T09:49:45.847Z,4.03
2022-11-09T09:52:33.923Z,3.92
2022-11-09T09:55:41.545Z,3.53
2022-11-09T09:58:13.127Z,5.03
2022-11-09T10:00:41.674Z,5.82
2022-11-09T10:03:17.427Z,2.85
2022-11-09T10:06:10.186Z,4.72
2022-11-09T10:08:48.808Z,4.60
2022-11-09T10:11:41.599Z,4.00
2022-11-09T10:14:21.494Z,4.82
2022-11-09T10:16:53.730Z,2.42
2022-11-09T10:19:29.828Z,4.13
2022-11-09T10:22:15.769Z,3.35
2022-11-09T10:25:20.701Z,5.68
2022-11-09T10:28:05.099Z,3.30
2022-11-09T10:30:33.500Z,2.05
2022-11-09T10:33:14.022Z,4.55
2022-11-09T10:36:08.499Z,2.72
2022-11-09T10:38:48.086Z,1.17
2022-11-09T10:41:33.344Z,3.47
2022-11-09T10:44:00.467Z,2.95
2022-11-09T10:46:27.272Z,1.30
2022-11-09T10:48:55.735Z,3.63
2022-11-09T10:51:43.094Z,2.45
2022-11-09T10:54:22.160Z,3.03
2022-11-09T10:57:09.064Z,4.00
2022-11-09T10:59:40.619Z,1.85
2022-11-09T11:02:30.785Z,2.22
2022-11-09T11:05:06.928Z,1.92
2022-11-09T11:07:35.410Z,1.40
2022-11-09T11:10:15.048Z,0.90
2022-11-09T11:12:43.562Z,2.60
2022-11-09T11:15:19.520Z,1.88
2022-11-09T11:17:46.348Z,1.88
2022-11-09T11:20:36.506Z,2.55
2022-11-09T11:23:12.790Z,3.60
2022-11-09T11:26:11.667Z,2.88
2022-11-09T11:28:58.007Z,2.28
2022-11-09T11:31:24.971Z,1.95
2022-11-09T11:33:51.793Z,3.83
2022-11-09T11:36:37.748Z,2.22
2022-11-09T11:39:10.959Z,3.00
2022-11-09T11:41:54.203Z,2.35
2022-11-09T11:44:27.331Z,2.45
2022-11-09T11:47:17.411Z,2.25
2022-11-09T11:50:08.614Z,2.50
2022-11-09T11:53:10.718Z,2.67
2022-11-09T11:56:09.707Z,1.95
2022-11-09T11:58:48.565Z,2.22
2022-11-09T12:01:27.370Z,2.90
2022-11-09T12:04:13.652Z,1.73
2022-11-09T12:06:44.556Z,1.90
2022-11-09T12:09:47.168Z,3.00
2022-11-09T12:12:31.926Z,3.88
2022-11-09T12:15:22.206Z,3.05
2022-11-09T12:18:15.905Z,3.60
2022-11-09T12:21:01.907Z,2.25
2022-11-09T12:23:53.347Z,2.78
2022-11-09T12:26:37.835Z,2.28
2022-11-09T12:29:23.534Z,2.38
2022-11-09T12:32:11.954Z,2.83
2022-11-09T12:34:50.271Z,2.25
2022-11-09T12:37:23.552Z,3.58
2022-11-09T12:39:53.599Z,2.35
2022-11-09T12:42:34.484Z,4.88
2022-11-09T12:45:34.986Z,6.40
2022-11-09T12:48:20.115Z,3.97
2022-11-09T12:50:47.279Z,2.67
2022-11-09T12:53:14.767Z,3.28
2022-11-09T12:55:56.822Z,3.58
2022-11-09T13:01:00.369Z,3.95
2022-11-09T13:03:30.351Z,2.72
2022-11-09T13:06:11.214Z,2.58
2022-11-09T13:08:40.487Z,3.67
2022-11-09T13:11:10.004Z,2.78
2022-11-09T13:13:37.169Z,1.83
2022-11-09T13:16:36.255Z,5.28
2022-11-09T13:19:03.523Z,3.58
2022-11-09T13:21:30.325Z,4.18
2022-11-09T13:24:02.699Z,2.85
2022-11-09T13:26:33.581Z,3.00
2022-11-09T13:29:16.225Z,2.35
2022-11-09T13:32:18.568Z,2.58
2022-11-09T13:37:37.055Z,1.83
2022-11-09T13:40:31.987Z,3.42
2022-11-09T13:43:11.006Z,3.45
2022-11-09T13:45:44.341Z,2.50
2022-11-09T13:48:39.548Z,3.60
2022-11-09T13:51:16.853Z,4.25
2022-11-09T13:53:54.147Z,4.30
2022-11-09T13:56:30.168Z,2.03
2022-11-09T13:59:16.466Z,4.07
2022-11-09T14:01:53.802Z,3.90
2022-11-09T14:04:20.772Z,4.28
2022-11-09T14:06:47.649Z,4.10
2022-11-09T14:09:18.491Z,6.07
2022-11-09T14:12:01.925Z,3.72
2022-11-09T14:14:31.810Z,3.97
2022-11-09T14:17:06.803Z,2.97
2022-11-09T14:19:54.572Z,4.72
2022-11-09T14:22:21.403Z,3.58
2022-11-09T14:24:49.025Z,4.55
2022-11-09T14:27:19.372Z,4.68
2022-11-09T14:29:55.535Z,4.25
2022-11-09T14:32:22.312Z,3.28
2022-11-09T14:34:49.418Z,4.60
2022-11-09T14:37:16.771Z,5.75
2022-11-09T14:39:48.720Z,5.07
2022-11-09T14:44:47.739Z,4.75
2022-11-09T14:47:31.367Z,4.63
2022-11-09T14:49:59.152Z,2.45
2022-11-09T14:52:30.971Z,5.20
2022-11-09T14:54:58.920Z,2.95
2022-11-09T14:57:25.911Z,4.88
2022-11-09T15:02:27.488Z,4.38
2022-11-09T15:04:59.400Z,2.42
2022-11-09T15:10:19.946Z,2.15
2022-11-09T15:12:53.071Z,2.38
2022-11-09T15:15:25.484Z,5.18
2022-11-09T15:17:52.943Z,3.13
2022-11-09T15:20:19.967Z,2.92
2022-11-09T15:22:57.462Z,2.20
2022-11-09T15:25:34.204Z,4.18
2022-11-09T15:28:21.564Z,4.13
2022-11-09T15:30:55.026Z,2.35
2022-11-09T15:33:29.753Z,2.78
2022-11-09T15:36:04.831Z,2.90
2022-11-09T15:38:44.145Z,3.10
2022-11-09T15:41:16.874Z,2.88
2022-11-09T15:43:44.205Z,2.50
2022-11-09T15:46:16.763Z,3.78
2022-11-09T15:48:46.219Z,4.30
2022-11-09T15:51:14.668Z,3.90
2022-11-09T15:53:41.927Z,4.97
2022-11-09T15:56:20.949Z,2.85
2022-11-09T15:58:49.312Z,3.60
2022-11-09T16:01:16.436Z,3.92
2022-11-09T16:03:43.382Z,3.80
2022-11-09T16:06:13.194Z,4.53
2022-11-09T16:08:39.990Z,2.75
2022-11-09T16:11:07.943Z,4.43
2022-11-09T16:13:34.781Z,3.63
2022-11-09T16:16:04.153Z,4.75
2022-11-09T16:18:31.304Z,4.88
2022-11-09T16:20:58.917Z,4.72
2022-11-09T16:23:26.123Z,6.97
2022-11-09T16:25:53.015Z,4.18
2022-11-09T16:28:20.056Z,5.60
2022-11-09T16:30:47.274Z,4.68
2022-11-09T16:33:14.168Z,7.15
2022-11-09T16:35:41.183Z,4.65
2022-11-09T16:38:08.231Z,4.43
2022-11-09T16:40:35.104Z,5.65
2022-11-09T16:43:02.558Z,3.85
2022-11-09T16:45:33.392Z,4.63
2022-11-09T16:48:04.426Z,3.55
2022-11-09T16:50:31.326Z,6.63
2022-11-09T16:52:58.093Z,4.38
2022-11-09T16:55:24.978Z,5.45
2022-11-09T16:57:51.962Z,3.17
2022-11-09T17:00:23.149Z,4.35
2022-11-09T17:02:50.091Z,5.07
2022-11-09T17:05:17.387Z,4.85
2022-11-09T17:07:46.717Z,5.95
2022-11-09T17:10:14.360Z,3.67
2022-11-09T17:12:41.167Z,4.25
2022-11-09T17:15:08.672Z,7.38
2022-11-09T17:17:35.544Z,9.70
2022-11-09T17:20:05.147Z,8.82
2022-11-09T17:22:32.018Z,7.47
2022-11-09T17:24:59.075Z,7.85
2022-11-09T17:27:25.948Z,8.15
2022-11-09T17:29:52.799Z,8.23
2022-11-09T17:32:24.893Z,6.18
2022-11-09T17:37:19.353Z,7.47
2022-11-09T17:39:46.417Z,5.63
2022-11-09T17:42:13.359Z,8.68
2022-11-09T17:44:40.225Z,4.65
2022-11-09T17:47:07.010Z,7.55
2022-11-09T17:49:33.893Z,6.85
2022-11-09T17:52:00.689Z,6.05
2022-11-09T17:54:35.477Z,5.35
2022-11-09T17:57:03.692Z,6.88
2022-11-09T17:59:30.558Z,6.07
2022-11-09T18:01:57.389Z,4.43
2022-11-09T18:04:24.446Z,3.88
2022-11-09T18:06:51.331Z,4.00
2022-11-09T18:09:40.429Z,6.95
2022-11-09T18:12:07.427Z,3.83
2022-11-09T18:14:34.309Z,6.57
2022-11-09T18:17:01.731Z,4.25
2022-11-09T18:19:28.572Z,3.38
2022-11-09T18:21:55.371Z,3.60
2022-11-09T18:24:22.193Z,3.38
2022-11-09T18:26:49.119Z,3.70
2022-11-09T18:29:16.025Z,4.32
2022-11-09T18:31:42.894Z,6.95
2022-11-09T18:34:10.803Z,6.57
2022-11-09T18:36:37.638Z,5.20
2022-11-09T18:39:04.803Z,6.45
2022-11-09T18:41:32.530Z,6.22
2022-11-09T18:43:59.376Z,6.43
2022-11-09T18:46:30.166Z,5.18
2022-11-09T18:48:57.048Z,8.10
2022-11-09T18:51:24.053Z,6.97
2022-11-09T18:53:50.931Z,8.73
2022-11-09T18:56:23.489Z,6.68
2022-11-09T18:58:52.985Z,7.20
2022-11-09T19:01:20.447Z,7.50
2022-11-09T19:03:47.426Z,7.72
2022-11-09T19:06:19.499Z,9.50
2022-11-09T19:11:32.627Z,8.27
2022-11-09T19:13:59.546Z,8.48
2022-11-09T19:16:28.163Z,10.60
2022-11-09T19:18:55.316Z,7.88
2022-11-09T19:21:25.345Z,10.95
2022-11-09T19:23:52.738Z,10.00
2022-11-09T19:26:20.356Z,10.05
2022-11-09T19:28:47.191Z,10.52
2022-11-09T19:31:16.391Z,11.20
2022-11-09T19:33:43.406Z,8.75
2022-11-09T19:38:58.818Z,10.30
2022-11-09T19:41:26.093Z,11.60
2022-11-09T19:43:55.923Z,13.85
2022-11-09T19:46:23.080Z,9.25
2022-11-09T19:48:50.042Z,8.90
2022-11-09T19:51:18.311Z,11.65
2022-11-09T19:53:52.905Z,14.75
2022-11-09T19:56:21.398Z,12.88
2022-11-09T19:58:50.603Z,13.07
2022-11-09T20:01:18.253Z,12.43
2022-11-09T20:03:48.306Z,14.63
2022-11-09T20:06:15.153Z,13.70
2022-11-09T20:08:41.986Z,11.95
2022-11-09T20:11:33.428Z,11.88
2022-11-09T20:14:00.315Z,11.13
2022-11-09T20:16:27.567Z,12.95
2022-11-09T20:18:54.592Z,10.07
2022-11-09T20:21:21.581Z,11.50
2022-11-09T20:23:48.459Z,10.98
2022-11-09T20:26:15.325Z,11.77
2022-11-09T20:28:42.191Z,11.98
2022-11-09T20:31:15.087Z,12.10
2022-11-09T20:33:42.575Z,11.48
2022-11-09T20:36:09.727Z,10.63
2022-11-09T20:38:36.662Z,11.38
2022-11-09T20:41:06.624Z,12.85
2022-11-09T20:43:33.907Z,11.82
2022-11-09T20:46:09.618Z,11.52
2022-11-09T20:48:53.482Z,11.63
2022-11-09T20:51:22.903Z,11.38
2022-11-09T20:53:50.722Z,10.85
2022-11-09T20:56:19.349Z,10.20
2022-11-09T20:58:46.570Z,10.93
2022-11-09T21:01:17.656Z,10.68
2022-11-09T21:03:45.253Z,12.63
2022-11-09T21:06:13.512Z,11.68
2022-11-09T21:08:43.361Z,14.70
2022-11-09T21:11:13.112Z,9.93
2022-11-09T21:13:44.292Z,10.68
2022-11-09T21:16:16.182Z,12.43
2022-11-09T21:18:43.171Z,12.35
2022-11-09T21:21:15.753Z,12.57
2022-11-09T21:24:01.581Z,12.40
2022-11-09T21:26:47.733Z,11.07
2022-11-09T21:29:35.909Z,16.02
2022-11-09T21:32:03.659Z,14.93
2022-11-09T21:34:35.374Z,13.82
2022-11-09T21:37:03.829Z,14.48
2022-11-09T21:39:30.750Z,15.25
2022-11-09T21:41:57.532Z,12.20
2022-11-09T21:44:25.190Z,15.02
2022-11-09T21:46:51.999Z,13.23
2022-11-09T21:49:18.786Z,13.45
2022-11-09T21:51:47.029Z,12.93
2022-11-09T21:54:13.969Z,15.07
2022-11-09T21:56:40.817Z,14.35
2022-11-09T21:59:07.718Z,12.65
2022-11-09T22:01:34.765Z,13.38
2022-11-09T22:04:01.937Z,13.13
2022-11-09T22:06:28.915Z,11.45
2022-11-09T22:08:55.884Z,11.38
2022-11-09T22:11:46.000Z,11.73
2022-11-09T22:14:37.844Z,12.48
2022-11-09T22:17:08.620Z,10.25
2022-11-09T22:19:56.197Z,13.25
2022-11-09T22:22:23.522Z,12.20
2022-11-09T22:24:50.411Z,10.57
2022-11-09T22:27:17.344Z,11.25
2022-11-09T22:29:44.226Z,8.82
2022-11-09T22:32:11.013Z,10.13
2022-11-09T22:34:37.824Z,9.85
2022-11-09T22:37:04.705Z,9.00
2022-11-09T22:39:31.960Z,10.52
2022-11-09T22:41:58.749Z,10.68
2022-11-09T22:44:26.093Z,9.88
2022-11-09T22:46:53.065Z,9.45
2022-11-09T22:49:20.103Z,9.63
2022-11-09T22:51:46.985Z,9.68
2022-11-09T22:54:13.882Z,9.80
2022-11-09T22:56:40.844Z,9.80
2022-11-09T22:59:08.048Z,9.88
2022-11-09T23:01:34.888Z,10.82
2022-11-09T23:04:01.886Z,10.82
2022-11-09T23:06:29.217Z,11.55
2022-11-09T23:08:56.241Z,11.75
2022-11-09T23:11:24.949Z,11.13
2022-11-09T23:13:53.251Z,13.45
2022-11-09T23:16:21.114Z,11.88
2022-11-09T23:18:54.279Z,12.07
2022-11-09T23:21:30.008Z,11.43
2022-11-09T23:23:59.105Z,10.93
2022-11-09T23:26:26.647Z,11.07
2022-11-09T23:28:54.246Z,12.32
2022-11-09T23:31:26.918Z,12.10
2022-11-09T23:33:55.805Z,12.02
2022-11-09T23:36:24.310Z,12.65
2022-11-09T23:38:51.606Z,11.25
2022-11-09T23:41:18.521Z,12.30
2022-11-09T23:43:49.277Z,12.45
2022-11-09T23:46:17.023Z,12.23
2022-11-09T23:48:44.165Z,11.65
2022-11-09T23:51:11.224Z,12.63
2022-11-09T23:53:38.570Z,12.13
2022-11-09T23:56:12.507Z,12.57
2022-11-09T23:58:39.311Z,11.20
